sensor_id;sensor_type;location;lat;lon;timestamp;pressure;altitude;pressure_sealevel;temperature;humidity
28354;BME280;15603;50.878;8.036;2022-09-03T00:01:04;146634.00;;;14.24;67.98
28354;BME280;15603;50.878;8.036;2022-09-03T00:03:48;146604.72;;;14.12;68.59
28354;BME280;15603;50.878;8.036;2022-09-03T00:06:30;146586.44;;;14.04;68.95
28354;BME280;15603;50.878;8.036;2022-09-03T00:09:06;146545.03;;;13.87;68.41
28354;BME280;15603;50.878;8.036;2022-09-03T00:14:15;146597.44;;;14.09;68.59
28354;BME280;15603;50.878;8.036;2022-09-03T00:16:49;146593.78;;;14.07;69.20
28354;BME280;15603;50.878;8.036;2022-09-03T00:19:21;146584.03;;;14.03;68.93
28354;BME280;15603;50.878;8.036;2022-09-03T00:22:01;146580.38;;;14.02;69.55
28354;BME280;15603;50.878;8.036;2022-09-03T00:24:33;146565.75;;;13.96;68.85
28354;BME280;15603;50.878;8.036;2022-09-03T00:27:02;146565.75;;;13.96;68.97
28354;BME280;15603;50.878;8.036;2022-09-03T00:29:36;146540.16;;;13.85;70.17
28354;BME280;15603;50.878;8.036;2022-09-03T00:32:13;146519.47;;;13.76;70.67
28354;BME280;15603;50.878;8.036;2022-09-03T00:34:48;146529.22;;;13.80;70.74
28354;BME280;15603;50.878;8.036;2022-09-03T00:37:17;146531.63;;;13.81;71.53
28354;BME280;15603;50.878;8.036;2022-09-03T00:39:44;146535.28;;;13.83;69.81
28354;BME280;15603;50.878;8.036;2022-09-03T00:42:34;146541.38;;;13.85;69.15
28354;BME280;15603;50.878;8.036;2022-09-03T00:45:18;146558.44;;;13.92;69.42
28354;BME280;15603;50.878;8.036;2022-09-03T00:54:15;146499.94;;;13.68;69.80
28354;BME280;15603;50.878;8.036;2022-09-03T01:02:36;146498.75;;;13.67;71.41
28354;BME280;15603;50.878;8.036;2022-09-03T01:07:56;146447.59;;;13.46;69.67
28354;BME280;15603;50.878;8.036;2022-09-03T01:10:27;146509.69;;;13.72;70.31
28354;BME280;15603;50.878;8.036;2022-09-03T01:13:10;146470.75;;;13.55;69.51
28354;BME280;15603;50.878;8.036;2022-09-03T01:18:41;146575.50;;;14.00;68.90
28354;BME280;15603;50.878;8.036;2022-09-03T01:21:24;146573.03;;;13.99;69.16
28354;BME280;15603;50.878;8.036;2022-09-03T01:26:54;146575.50;;;14.00;68.92
28354;BME280;15603;50.878;8.036;2022-09-03T01:32:33;146517.00;;;13.75;68.44
28354;BME280;15603;50.878;8.036;2022-09-03T01:38:11;146556.00;;;13.91;68.68
28354;BME280;15603;50.878;8.036;2022-09-03T01:40:59;146558.44;;;13.92;69.31
28354;BME280;15603;50.878;8.036;2022-09-03T01:46:39;146535.28;;;13.83;69.14
28354;BME280;15603;50.878;8.036;2022-09-03T01:49:22;146543.81;;;13.86;68.90
28354;BME280;15603;50.878;8.036;2022-09-03T01:52:06;146524.34;;;13.78;70.55
28354;BME280;15603;50.878;8.036;2022-09-03T01:54:46;146548.69;;;13.88;69.53
28354;BME280;15603;50.878;8.036;2022-09-03T01:57:32;146506.06;;;13.70;68.90
28354;BME280;15603;50.878;8.036;2022-09-03T02:00:10;146548.69;;;13.88;68.68
28354;BME280;15603;50.878;8.036;2022-09-03T02:02:44;146495.09;;;13.66;68.38
28354;BME280;15603;50.878;8.036;2022-09-03T02:05:20;146534.09;;;13.82;69.06
28354;BME280;15603;50.878;8.036;2022-09-03T02:08:05;146536.50;;;13.83;68.59
28354;BME280;15603;50.878;8.036;2022-09-03T02:10:40;146553.56;;;13.90;68.49
28354;BME280;15603;50.878;8.036;2022-09-03T02:13:25;146592.56;;;14.07;67.54
28354;BME280;15603;50.878;8.036;2022-09-03T02:15:56;146585.22;;;14.04;68.07
28354;BME280;15603;50.878;8.036;2022-09-03T02:18:29;146599.84;;;14.10;67.80
28354;BME280;15603;50.878;8.036;2022-09-03T02:20:57;146559.63;;;13.93;67.15
28354;BME280;15603;50.878;8.036;2022-09-03T02:23:26;146631.53;;;14.23;67.14
28354;BME280;15603;50.878;8.036;2022-09-03T02:25:57;146631.53;;;14.23;66.87
28354;BME280;15603;50.878;8.036;2022-09-03T02:28:25;146610.84;;;14.14;67.14
28354;BME280;15603;50.878;8.036;2022-09-03T02:30:53;146616.91;;;14.17;67.68
28354;BME280;15603;50.878;8.036;2022-09-03T02:33:21;146590.09;;;14.06;67.69
28354;BME280;15603;50.878;8.036;2022-09-03T02:35:48;146560.88;;;13.93;67.71
28354;BME280;15603;50.878;8.036;2022-09-03T02:38:21;146616.91;;;14.17;67.47
28354;BME280;15603;50.878;8.036;2022-09-03T02:40:52;146536.50;;;13.83;68.27
28354;BME280;15603;50.878;8.036;2022-09-03T02:43:26;146499.94;;;13.68;67.95
28354;BME280;15603;50.878;8.036;2022-09-03T02:46:01;146570.63;;;13.98;68.13
28354;BME280;15603;50.878;8.036;2022-09-03T02:48:29;146585.22;;;14.04;67.92
28354;BME280;15603;50.878;8.036;2022-09-03T02:50:56;146590.09;;;14.06;68.23
28354;BME280;15603;50.878;8.036;2022-09-03T02:53:23;146593.78;;;14.07;68.72
28354;BME280;15603;50.878;8.036;2022-09-03T02:55:50;146542.63;;;13.86;68.52
28354;BME280;15603;50.878;8.036;2022-09-03T02:58:17;146590.09;;;14.06;68.11
28354;BME280;15603;50.878;8.036;2022-09-03T03:00:44;146573.03;;;13.99;70.11
28354;BME280;15603;50.878;8.036;2022-09-03T03:03:11;146556.00;;;13.91;70.29
28354;BME280;15603;50.878;8.036;2022-09-03T03:05:44;146598.66;;;14.09;68.44
28354;BME280;15603;50.878;8.036;2022-09-03T03:08:13;146621.78;;;14.19;67.74
28354;BME280;15603;50.878;8.036;2022-09-03T03:10:41;146609.59;;;14.14;67.31
28354;BME280;15603;50.878;8.036;2022-09-03T03:13:11;146631.53;;;14.23;67.20
28354;BME280;15603;50.878;8.036;2022-09-03T03:15:38;146626.66;;;14.21;67.38
28354;BME280;15603;50.878;8.036;2022-09-03T03:18:05;146652.28;;;14.32;67.09
28354;BME280;15603;50.878;8.036;2022-09-03T03:20:33;146653.47;;;14.32;66.79
28354;BME280;15603;50.878;8.036;2022-09-03T03:23:01;146651.00;;;14.31;67.08
28354;BME280;15603;50.878;8.036;2022-09-03T03:25:28;146643.72;;;14.28;67.42
28354;BME280;15603;50.878;8.036;2022-09-03T03:27:57;146643.72;;;14.28;67.27
28354;BME280;15603;50.878;8.036;2022-09-03T03:30:24;146643.72;;;14.28;67.21
28354;BME280;15603;50.878;8.036;2022-09-03T03:32:52;146638.84;;;14.26;66.73
28354;BME280;15603;50.878;8.036;2022-09-03T03:35:20;146653.47;;;14.32;67.43
28354;BME280;15603;50.878;8.036;2022-09-03T03:37:47;146675.41;;;14.42;67.07
28354;BME280;15603;50.878;8.036;2022-09-03T03:40:15;146597.44;;;14.09;67.07
28354;BME280;15603;50.878;8.036;2022-09-03T03:42:42;146646.13;;;14.29;67.71
28354;BME280;15603;50.878;8.036;2022-09-03T03:45:09;146627.88;;;14.22;67.77
28354;BME280;15603;50.878;8.036;2022-09-03T03:47:36;146531.63;;;13.81;68.56
28354;BME280;15603;50.878;8.036;2022-09-03T03:50:04;146608.38;;;14.13;68.31
28354;BME280;15603;50.878;8.036;2022-09-03T03:52:31;146594.97;;;14.08;67.91
28354;BME280;15603;50.878;8.036;2022-09-03T03:54:58;146616.91;;;14.17;67.88
28354;BME280;15603;50.878;8.036;2022-09-03T03:57:29;146609.59;;;14.14;68.07
28354;BME280;15603;50.878;8.036;2022-09-03T03:59:56;146473.16;;;13.57;67.83
28354;BME280;15603;50.878;8.036;2022-09-03T04:02:23;146563.31;;;13.94;69.20
28354;BME280;15603;50.878;8.036;2022-09-03T04:04:50;146552.34;;;13.90;69.73
28354;BME280;15603;50.878;8.036;2022-09-03T04:07:17;146536.50;;;13.83;69.49
28354;BME280;15603;50.878;8.036;2022-09-03T04:09:44;146521.88;;;13.77;69.99
28354;BME280;15603;50.878;8.036;2022-09-03T04:12:11;146532.81;;;13.82;70.11
28354;BME280;15603;50.878;8.036;2022-09-03T04:14:38;146546.22;;;13.87;70.31
28354;BME280;15603;50.878;8.036;2022-09-03T04:17:05;146546.22;;;13.87;69.12
28354;BME280;15603;50.878;8.036;2022-09-03T04:19:32;146526.75;;;13.79;70.77
28354;BME280;15603;50.878;8.036;2022-09-03T04:21:59;146514.56;;;13.74;69.95
28354;BME280;15603;50.878;8.036;2022-09-03T04:24:26;146538.94;;;13.84;70.12
28354;BME280;15603;50.878;8.036;2022-09-03T04:26:54;146560.88;;;13.93;69.16
28354;BME280;15603;50.878;8.036;2022-09-03T04:29:21;146546.22;;;13.87;69.38
28354;BME280;15603;50.878;8.036;2022-09-03T04:31:48;146519.47;;;13.76;70.25
28354;BME280;15603;50.878;8.036;2022-09-03T04:34:34;146525.56;;;13.79;70.60
28354;BME280;15603;50.878;8.036;2022-09-03T04:37:01;146523.09;;;13.78;70.09
28354;BME280;15603;50.878;8.036;2022-09-03T04:39:28;146534.09;;;13.82;70.18
28354;BME280;15603;50.878;8.036;2022-09-03T04:41:55;146529.22;;;13.80;70.38
28354;BME280;15603;50.878;8.036;2022-09-03T04:44:25;146501.19;;;13.68;70.97
28354;BME280;15603;50.878;8.036;2022-09-03T04:46:52;146551.09;;;13.89;70.57
28354;BME280;15603;50.878;8.036;2022-09-03T04:49:19;146558.44;;;13.92;70.09
28354;BME280;15603;50.878;8.036;2022-09-03T04:51:46;146556.00;;;13.91;69.88
28354;BME280;15603;50.878;8.036;2022-09-03T04:54:14;146541.38;;;13.85;71.01
28354;BME280;15603;50.878;8.036;2022-09-03T04:56:41;146553.56;;;13.90;70.90
28354;BME280;15603;50.878;8.036;2022-09-03T04:59:08;146532.81;;;13.82;72.51
28354;BME280;15603;50.878;8.036;2022-09-03T05:01:37;146536.50;;;13.83;71.87
28354;BME280;15603;50.878;8.036;2022-09-03T05:04:06;146512.16;;;13.73;70.43
28354;BME280;15603;50.878;8.036;2022-09-03T05:06:35;146609.59;;;14.14;69.48
28354;BME280;15603;50.878;8.036;2022-09-03T05:09:03;146602.31;;;14.11;69.99
28354;BME280;15603;50.878;8.036;2022-09-03T05:11:31;146653.47;;;14.32;68.75
28354;BME280;15603;50.878;8.036;2022-09-03T05:13:59;146651.00;;;14.31;68.27
28354;BME280;15603;50.878;8.036;2022-09-03T05:16:27;146651.00;;;14.31;68.37
28354;BME280;15603;50.878;8.036;2022-09-03T05:18:57;146672.97;;;14.41;68.32
28354;BME280;15603;50.878;8.036;2022-09-03T05:21:26;146668.09;;;14.39;69.79
28354;BME280;15603;50.878;8.036;2022-09-03T05:23:54;146659.56;;;14.35;70.27
28354;BME280;15603;50.878;8.036;2022-09-03T05:26:24;146670.53;;;14.40;69.84
28354;BME280;15603;50.878;8.036;2022-09-03T05:29:03;146703.44;;;14.53;68.17
28354;BME280;15603;50.878;8.036;2022-09-03T05:31:35;146709.50;;;14.56;68.98
28354;BME280;15603;50.878;8.036;2022-09-03T05:34:05;146704.66;;;14.54;70.19
28354;BME280;15603;50.878;8.036;2022-09-03T05:36:34;146762.00;;;14.78;68.30
28354;BME280;15603;50.878;8.036;2022-09-03T05:39:05;146775.41;;;14.84;67.78
28354;BME280;15603;50.878;8.036;2022-09-03T05:41:33;146788.78;;;14.89;67.66
28354;BME280;15603;50.878;8.036;2022-09-03T05:44:00;146841.22;;;15.11;65.73
28354;BME280;15603;50.878;8.036;2022-09-03T05:46:30;146858.31;;;15.19;65.64
28354;BME280;15603;50.878;8.036;2022-09-03T05:49:03;146880.22;;;15.28;66.08
28354;BME280;15603;50.878;8.036;2022-09-03T05:51:31;146929.00;;;15.48;63.78
28354;BME280;15603;50.878;8.036;2022-09-03T05:53:59;146958.28;;;15.61;63.81
28354;BME280;15603;50.878;8.036;2022-09-03T05:56:28;146992.47;;;15.75;64.13
28354;BME280;15603;50.878;8.036;2022-09-03T05:58:58;147042.47;;;15.96;62.74
28354;BME280;15603;50.878;8.036;2022-09-03T06:01:29;147091.28;;;16.17;61.56
28354;BME280;15603;50.878;8.036;2022-09-03T06:04:02;147131.53;;;16.34;62.21
28354;BME280;15603;50.878;8.036;2022-09-03T06:06:32;147155.97;;;16.44;61.40
28354;BME280;15603;50.878;8.036;2022-09-03T06:09:02;147184.00;;;16.56;60.42
28354;BME280;15603;50.878;8.036;2022-09-03T06:11:30;147202.31;;;16.63;60.55
28354;BME280;15603;50.878;8.036;2022-09-03T06:14:00;147168.13;;;16.49;60.48
28354;BME280;15603;50.878;8.036;2022-09-03T06:16:28;147226.72;;;16.74;60.54
28354;BME280;15603;50.878;8.036;2022-09-03T06:18:58;147247.53;;;16.82;60.21
28354;BME280;15603;50.878;8.036;2022-09-03T06:21:27;147285.34;;;16.98;60.11
28354;BME280;15603;50.878;8.036;2022-09-03T06:23:56;147309.75;;;17.08;59.53
28354;BME280;15603;50.878;8.036;2022-09-03T06:26:26;147287.78;;;16.99;60.25
28354;BME280;15603;50.878;8.036;2022-09-03T06:28:56;147343.97;;;17.23;59.51
28354;BME280;15603;50.878;8.036;2022-09-03T06:31:24;147320.78;;;17.13;59.38
28354;BME280;15603;50.878;8.036;2022-09-03T06:33:52;147339.06;;;17.21;60.20
28354;BME280;15603;50.878;8.036;2022-09-03T06:36:22;147373.25;;;17.35;59.15
28354;BME280;15603;50.878;8.036;2022-09-03T06:38:54;147409.88;;;17.51;57.98
28354;BME280;15603;50.878;8.036;2022-09-03T06:41:27;147436.75;;;17.62;57.80
28354;BME280;15603;50.878;8.036;2022-09-03T06:43:59;147444.09;;;17.65;57.77
28354;BME280;15603;50.878;8.036;2022-09-03T06:46:33;147456.28;;;17.70;56.76
28354;BME280;15603;50.878;8.036;2022-09-03T06:49:01;147546.69;;;18.08;56.79
28354;BME280;15603;50.878;8.036;2022-09-03T06:51:29;147554.06;;;18.11;56.75
28354;BME280;15603;50.878;8.036;2022-09-03T06:54:05;147547.91;;;18.09;56.99
28354;BME280;15603;50.878;8.036;2022-09-03T06:56:34;147505.19;;;17.91;56.11
28354;BME280;15603;50.878;8.036;2022-09-03T06:59:11;147585.81;;;18.24;55.86
28354;BME280;15603;50.878;8.036;2022-09-03T07:01:39;147617.53;;;18.38;55.68
28354;BME280;15603;50.878;8.036;2022-09-03T07:04:12;147655.44;;;18.54;55.01
28354;BME280;15603;50.878;8.036;2022-09-03T07:06:40;147650.56;;;18.52;54.88
28354;BME280;15603;50.878;8.036;2022-09-03T07:09:09;147622.47;;;18.40;55.15
28354;BME280;15603;50.878;8.036;2022-09-03T07:11:37;147595.59;;;18.29;55.47
28354;BME280;15603;50.878;8.036;2022-09-03T07:14:12;147587.03;;;18.25;55.24
28354;BME280;15603;50.878;8.036;2022-09-03T07:16:40;147580.88;;;18.22;56.66
28354;BME280;15603;50.878;8.036;2022-09-03T07:19:10;147512.53;;;17.94;55.51
28354;BME280;15603;50.878;8.036;2022-09-03T07:21:39;147527.16;;;18.00;56.52
28354;BME280;15603;50.878;8.036;2022-09-03T07:24:16;147552.78;;;18.11;56.38
28354;BME280;15603;50.878;8.036;2022-09-03T07:26:44;147562.56;;;18.15;56.35
28354;BME280;15603;50.878;8.036;2022-09-03T07:29:14;147544.25;;;18.07;56.57
28354;BME280;15603;50.878;8.036;2022-09-03T07:31:45;147598.00;;;18.30;56.52
28354;BME280;15603;50.878;8.036;2022-09-03T07:34:12;147602.88;;;18.32;56.33
28354;BME280;15603;50.878;8.036;2022-09-03T07:36:42;147638.31;;;18.47;56.05
28354;BME280;15603;50.878;8.036;2022-09-03T07:39:13;147588.22;;;18.25;55.22
28354;BME280;15603;50.878;8.036;2022-09-03T07:41:41;147698.19;;;18.72;55.21
28354;BME280;15603;50.878;8.036;2022-09-03T07:44:12;147712.84;;;18.78;54.54
28354;BME280;15603;50.878;8.036;2022-09-03T07:46:42;147743.47;;;18.91;54.33
28354;BME280;15603;50.878;8.036;2022-09-03T07:49:12;147685.97;;;18.67;54.98
28354;BME280;15603;50.878;8.036;2022-09-03T07:51:39;147627.34;;;18.42;54.51
28354;BME280;15603;50.878;8.036;2022-09-03T07:54:08;147736.13;;;18.88;54.83
28354;BME280;15603;50.878;8.036;2022-09-03T07:56:38;147771.56;;;19.02;54.13
28354;BME280;15603;50.878;8.036;2022-09-03T07:59:06;147786.22;;;19.09;54.16
28354;BME280;15603;50.878;8.036;2022-09-03T08:01:34;147739.78;;;18.89;54.17
28354;BME280;15603;50.878;8.036;2022-09-03T08:04:02;147808.22;;;19.18;53.79
28354;BME280;15603;50.878;8.036;2022-09-03T08:06:38;147741.00;;;18.90;53.90
28354;BME280;15603;50.878;8.036;2022-09-03T08:09:08;147693.31;;;18.70;54.79
28354;BME280;15603;50.878;8.036;2022-09-03T08:11:39;147690.84;;;18.69;55.31
28354;BME280;15603;50.878;8.036;2022-09-03T08:14:08;147673.78;;;18.61;55.05
28354;BME280;15603;50.878;8.036;2022-09-03T08:16:38;147712.84;;;18.78;55.59
28354;BME280;15603;50.878;8.036;2022-09-03T08:19:05;147681.06;;;18.64;55.31
28354;BME280;15603;50.878;8.036;2022-09-03T08:21:33;147630.97;;;18.43;55.33
28354;BME280;15603;50.878;8.036;2022-09-03T08:24:01;147696.97;;;18.71;55.33
28354;BME280;15603;50.878;8.036;2022-09-03T08:26:34;147695.78;;;18.71;55.23
28354;BME280;15603;50.878;8.036;2022-09-03T08:29:01;147696.97;;;18.71;56.23
28354;BME280;15603;50.878;8.036;2022-09-03T08:31:29;147688.44;;;18.68;55.24
28354;BME280;15603;50.878;8.036;2022-09-03T08:33:58;147654.19;;;18.53;55.73
28354;BME280;15603;50.878;8.036;2022-09-03T08:36:28;147685.97;;;18.67;55.95
28354;BME280;15603;50.878;8.036;2022-09-03T08:38:57;147692.09;;;18.69;55.48
28354;BME280;15603;50.878;8.036;2022-09-03T08:42:04;147681.06;;;18.64;56.78
28354;BME280;15603;50.878;8.036;2022-09-03T08:44:55;147725.13;;;18.83;56.22
28354;BME280;15603;50.878;8.036;2022-09-03T08:47:27;147766.69;;;19.00;54.91
28354;BME280;15603;50.878;8.036;2022-09-03T08:50:03;147814.31;;;19.20;55.21
28354;BME280;15603;50.878;8.036;2022-09-03T08:52:41;147752.03;;;18.94;54.32
28354;BME280;15603;50.878;8.036;2022-09-03T08:55:28;147826.56;;;19.26;54.09
28354;BME280;15603;50.878;8.036;2022-09-03T08:58:08;147797.25;;;19.13;54.27
28354;BME280;15603;50.878;8.036;2022-09-03T09:06:33;147847.38;;;19.34;53.88
28354;BME280;15603;50.878;8.036;2022-09-03T09:12:21;147849.78;;;19.35;53.94
28354;BME280;15603;50.878;8.036;2022-09-03T09:15:07;147906.00;;;19.59;53.13
28354;BME280;15603;50.878;8.036;2022-09-03T09:20:23;147869.34;;;19.43;54.13
28354;BME280;15603;50.878;8.036;2022-09-03T09:25:26;147896.25;;;19.55;53.74
28354;BME280;15603;50.878;8.036;2022-09-03T09:28:02;147918.25;;;19.64;53.74
28354;BME280;15603;50.878;8.036;2022-09-03T09:30:31;147930.50;;;19.69;53.96
28354;BME280;15603;50.878;8.036;2022-09-03T09:32:58;147988.00;;;19.93;53.38
28354;BME280;15603;50.878;8.036;2022-09-03T09:35:26;148011.22;;;20.03;53.00
28354;BME280;15603;50.878;8.036;2022-09-03T09:37:55;148050.38;;;20.19;52.47
28354;BME280;15603;50.878;8.036;2022-09-03T09:40:24;148058.94;;;20.23;52.18
28354;BME280;15603;50.878;8.036;2022-09-03T09:43:02;148096.84;;;20.39;52.41
28354;BME280;15603;50.878;8.036;2022-09-03T09:45:29;148176.41;;;20.72;50.80
28354;BME280;15603;50.878;8.036;2022-09-03T09:48:01;148167.81;;;20.69;49.85
28354;BME280;15603;50.878;8.036;2022-09-03T09:50:28;148200.91;;;20.83;49.88
28354;BME280;15603;50.878;8.036;2022-09-03T09:53:00;148285.31;;;21.18;49.97
28354;BME280;15603;50.878;8.036;2022-09-03T09:55:30;148284.09;;;21.17;49.87
28354;BME280;15603;50.878;8.036;2022-09-03T09:58:05;148253.50;;;21.05;50.32
28354;BME280;15603;50.878;8.036;2022-09-03T10:00:40;148258.38;;;21.07;50.68
28354;BME280;15603;50.878;8.036;2022-09-03T10:03:09;148273.06;;;21.13;51.20
28354;BME280;15603;50.878;8.036;2022-09-03T10:05:39;148268.16;;;21.11;51.18
28354;BME280;15603;50.878;8.036;2022-09-03T10:08:18;148307.34;;;21.27;50.35
28354;BME280;15603;50.878;8.036;2022-09-03T10:10:48;148297.56;;;21.23;50.99
28354;BME280;15603;50.878;8.036;2022-09-03T10:16:22;148240.03;;;20.99;51.54
28354;BME280;15603;50.878;8.036;2022-09-03T10:21:25;148251.06;;;21.04;50.81
28354;BME280;15603;50.878;8.036;2022-09-03T10:26:43;148255.97;;;21.06;51.15
28354;BME280;15603;50.878;8.036;2022-09-03T10:29:20;148260.84;;;21.08;51.38
28354;BME280;15603;50.878;8.036;2022-09-03T10:31:54;148268.16;;;21.11;51.06
28354;BME280;15603;50.878;8.036;2022-09-03T10:34:33;148265.75;;;21.10;51.60
28354;BME280;15603;50.878;8.036;2022-09-03T10:51:17;148285.31;;;21.18;51.56
28354;BME280;15603;50.878;8.036;2022-09-03T10:56:53;148415.09;;;21.72;50.55
28354;BME280;15603;50.878;8.036;2022-09-03T10:59:42;148426.13;;;21.77;50.22
28354;BME280;15603;50.878;8.036;2022-09-03T11:02:38;148366.16;;;21.52;50.63
28354;BME280;15603;50.878;8.036;2022-09-03T11:05:19;148439.59;;;21.83;50.12
28354;BME280;15603;50.878;8.036;2022-09-03T11:08:39;148412.66;;;21.71;50.95
28354;BME280;15603;50.878;8.036;2022-09-03T11:11:19;148424.88;;;21.76;50.59
28354;BME280;15603;50.878;8.036;2022-09-03T11:13:55;148437.13;;;21.82;51.17
28354;BME280;15603;50.878;8.036;2022-09-03T11:16:31;148487.31;;;22.03;50.31
28354;BME280;15603;50.878;8.036;2022-09-03T11:19:04;148535.06;;;22.23;50.42
28354;BME280;15603;50.878;8.036;2022-09-03T11:21:33;148576.75;;;22.40;49.11
28354;BME280;15603;50.878;8.036;2022-09-03T11:24:21;148584.09;;;22.43;49.24
28354;BME280;15603;50.878;8.036;2022-09-03T11:29:34;148601.25;;;22.50;49.78
28354;BME280;15603;50.878;8.036;2022-09-03T11:33:09;148606.16;;;22.52;49.50
28354;BME280;15603;50.878;8.036;2022-09-03T11:37:59;148559.63;;;22.33;49.71
28354;BME280;15603;50.878;8.036;2022-09-03T11:40:37;148620.84;;;22.59;49.50
28354;BME280;15603;50.878;8.036;2022-09-03T11:48:41;148606.16;;;22.52;49.62
28354;BME280;15603;50.878;8.036;2022-09-03T11:51:29;148657.59;;;22.74;49.94
28354;BME280;15603;50.878;8.036;2022-09-03T11:54:02;148638.00;;;22.66;50.18
28354;BME280;15603;50.878;8.036;2022-09-03T11:56:31;148667.38;;;22.78;50.15
28354;BME280;15603;50.878;8.036;2022-09-03T11:59:14;148711.50;;;22.97;49.83
28354;BME280;15603;50.878;8.036;2022-09-03T12:01:47;148750.72;;;23.13;49.70
28354;BME280;15603;50.878;8.036;2022-09-03T12:04:21;148809.53;;;23.38;48.65
28354;BME280;15603;50.878;8.036;2022-09-03T12:09:39;148660.06;;;22.75;49.32
28354;BME280;15603;50.878;8.036;2022-09-03T12:15:20;148846.31;;;23.53;49.84
28354;BME280;15603;50.878;8.036;2022-09-03T12:20:42;148919.88;;;23.84;48.30
28354;BME280;15603;50.878;8.036;2022-09-03T12:23:11;148799.75;;;23.33;48.29
28354;BME280;15603;50.878;8.036;2022-09-03T12:25:44;148861.00;;;23.59;49.39
28354;BME280;15603;50.878;8.036;2022-09-03T12:28:21;148917.44;;;23.83;48.73
28354;BME280;15603;50.878;8.036;2022-09-03T12:30:52;148858.56;;;23.58;49.35
28354;BME280;15603;50.878;8.036;2022-09-03T12:33:21;148824.25;;;23.44;48.62
28354;BME280;15603;50.878;8.036;2022-09-03T12:35:56;148870.78;;;23.63;48.81
28354;BME280;15603;50.878;8.036;2022-09-03T12:38:26;148851.19;;;23.55;49.23
28354;BME280;15603;50.878;8.036;2022-09-03T12:40:55;148840.19;;;23.50;48.92
28354;BME280;15603;50.878;8.036;2022-09-03T12:43:49;148907.59;;;23.79;48.49
28354;BME280;15603;50.878;8.036;2022-09-03T12:46:21;148988.53;;;24.13;48.55
28354;BME280;15603;50.878;8.036;2022-09-03T12:49:02;149063.28;;;24.44;46.83
28354;BME280;15603;50.878;8.036;2022-09-03T12:51:58;149016.72;;;24.24;47.16
28354;BME280;15603;50.878;8.036;2022-09-03T12:54:33;149009.38;;;24.21;46.66
28354;BME280;15603;50.878;8.036;2022-09-03T12:57:03;148984.84;;;24.11;47.81
28354;BME280;15603;50.878;8.036;2022-09-03T12:59:34;148945.63;;;23.95;47.95
28354;BME280;15603;50.878;8.036;2022-09-03T13:02:15;148983.63;;;24.10;48.22
28354;BME280;15603;50.878;8.036;2022-09-03T13:04:45;148926.00;;;23.86;48.11
28354;BME280;15603;50.878;8.036;2022-09-03T13:07:13;148946.84;;;23.95;47.68
28354;BME280;15603;50.878;8.036;2022-09-03T13:09:46;149003.22;;;24.19;47.46
28354;BME280;15603;50.878;8.036;2022-09-03T13:12:23;149139.38;;;24.76;46.11
28354;BME280;15603;50.878;8.036;2022-09-03T13:14:56;149187.19;;;24.96;45.87
28354;BME280;15603;50.878;8.036;2022-09-03T13:17:31;149047.38;;;24.37;47.17
28354;BME280;15603;50.878;8.036;2022-09-03T13:31:31;148966.44;;;24.03;49.63
28354;BME280;15603;50.878;8.036;2022-09-03T13:34:07;149038.78;;;24.34;47.39
28354;BME280;15603;50.878;8.036;2022-09-03T13:36:44;149027.78;;;24.29;49.40
28354;BME280;15603;50.878;8.036;2022-09-03T13:39:21;148991.00;;;24.14;49.54
28354;BME280;15603;50.878;8.036;2022-09-03T13:44:36;149057.19;;;24.41;48.61
28354;BME280;15603;50.878;8.036;2022-09-03T13:47:31;149035.09;;;24.32;49.07
28354;BME280;15603;50.878;8.036;2022-09-03T13:50:09;149071.88;;;24.47;47.39
28354;BME280;15603;50.878;8.036;2022-09-03T13:55:50;148959.13;;;24.00;49.33
28354;BME280;15603;50.878;8.036;2022-09-03T13:58:32;148971.34;;;24.05;48.76
28354;BME280;15603;50.878;8.036;2022-09-03T14:01:14;148919.88;;;23.84;50.08
28354;BME280;15603;50.878;8.036;2022-09-03T14:03:56;148944.38;;;23.94;49.28
28354;BME280;15603;50.878;8.036;2022-09-03T14:09:14;148878.16;;;23.66;50.76
28354;BME280;15603;50.878;8.036;2022-09-03T14:11:53;148846.31;;;23.53;51.42
28354;BME280;15603;50.878;8.036;2022-09-03T14:17:41;148865.91;;;23.61;51.25
28354;BME280;15603;50.878;8.036;2022-09-03T14:20:19;148853.69;;;23.56;51.68
28354;BME280;15603;50.878;8.036;2022-09-03T14:23:09;148743.41;;;23.10;52.31
28354;BME280;15603;50.878;8.036;2022-09-03T14:25:56;148759.31;;;23.17;52.85
28354;BME280;15603;50.878;8.036;2022-09-03T14:28:35;148736.03;;;23.07;53.12
28354;BME280;15603;50.878;8.036;2022-09-03T14:31:14;148711.50;;;22.97;52.85
28354;BME280;15603;50.878;8.036;2022-09-03T14:36:44;148721.28;;;23.01;54.33
28354;BME280;15603;50.878;8.036;2022-09-03T14:39:27;148667.38;;;22.78;54.06
28354;BME280;15603;50.878;8.036;2022-09-03T14:42:20;148792.38;;;23.30;51.32
28354;BME280;15603;50.878;8.036;2022-09-03T14:45:29;148878.16;;;23.66;50.45
28354;BME280;15603;50.878;8.036;2022-09-03T14:51:25;148884.28;;;23.69;52.23
28354;BME280;15603;50.878;8.036;2022-09-03T14:59:55;149135.69;;;24.74;51.15
28354;BME280;15603;50.878;8.036;2022-09-03T15:02:35;149090.31;;;24.55;51.73
28354;BME280;15603;50.878;8.036;2022-09-03T15:11:23;148941.94;;;23.93;50.64
28354;BME280;15603;50.878;8.036;2022-09-03T15:14:14;148895.34;;;23.74;53.63
28354;BME280;15603;50.878;8.036;2022-09-03T15:22:40;149108.72;;;24.63;49.69
28354;BME280;15603;50.878;8.036;2022-09-03T15:25:32;149043.69;;;24.36;49.45
28354;BME280;15603;50.878;8.036;2022-09-03T15:31:03;148973.81;;;24.06;50.98
28354;BME280;15603;50.878;8.036;2022-09-03T15:36:27;148890.44;;;23.71;53.04
28354;BME280;15603;50.878;8.036;2022-09-03T15:39:19;148895.34;;;23.74;51.17
28354;BME280;15603;50.878;8.036;2022-09-03T15:41:55;148829.13;;;23.46;53.97
28354;BME280;15603;50.878;8.036;2022-09-03T15:44:25;148797.28;;;23.32;54.66
28354;BME280;15603;50.878;8.036;2022-09-03T15:53:35;148821.81;;;23.43;53.28